Time;durP1;ratioP1;P1;durP2;ratioP2;P2;SDS_P1;SDS_P2;PMS_P1;PMS_P2;Temp;Humidity;BMP_temperature;BMP_pressure;BME280_temperature;BME280_humidity;BME280_pressure;Samples;Min_cycle;Max_cycle;Signal;HPM_P1;HPM_P2
2023/02/24 00:01:07;;;;;;;10.48;6.70;;;;;;;7.93;64.23;94957.84;5087386;28;20039;-80
2023/02/24 00:03:34;;;;;;;12.70;6.63;;;;;;;7.95;64.13;94958.19;5086262;28;20028;-77
2023/02/24 00:05:59;;;;;;;12.90;6.78;;;;;;;8.02;64.05;94958.06;5087727;28;20462;-80
2023/02/24 00:08:24;;;;;;;11.02;7.93;;;;;;;8.09;63.48;94954.44;5086076;28;20036;-78
2023/02/24 00:10:51;;;;;;;15.10;10.00;;;;;;;8.05;63.58;94957.25;5069885;28;20068;-77
2023/02/24 00:13:21;;;;;;;16.98;11.13;;;;;;;8.00;63.85;94952.25;5086044;28;20387;-79
2023/02/24 00:15:57;;;;;;;17.90;11.68;;;;;;;7.92;64.09;94954.34;5086602;28;20054;-77
2023/02/24 00:18:22;;;;;;;14.90;10.68;;;;;;;7.94;64.00;94945.72;5086913;28;20031;-80
2023/02/24 00:20:48;;;;;;;13.95;9.18;;;;;;;7.97;63.96;94953.88;5085341;28;20049;-77
2023/02/24 00:23:17;;;;;;;13.45;8.80;;;;;;;7.89;63.92;94943.47;5087150;28;20182;-79
2023/02/24 00:25:42;;;;;;;15.95;8.07;;;;;;;7.99;63.55;94950.72;5085276;28;20032;-78
2023/02/24 00:28:08;;;;;;;13.63;8.27;;;;;;;7.99;63.63;94942.50;5086534;28;20081;-79
2023/02/24 00:30:33;;;;;;;16.77;8.93;;;;;;;7.95;63.84;94937.06;5086902;28;20032;-78
2023/02/24 00:33:01;;;;;;;13.75;7.93;;;;;;;7.87;64.11;94937.63;5086452;28;20035;-79
2023/02/24 00:35:28;;;;;;;11.65;8.10;;;;;;;7.86;63.97;94944.31;5086233;28;20066;-79
2023/02/24 00:37:53;;;;;;;12.88;7.93;;;;;;;7.83;64.10;94945.13;5085482;28;20104;-78
2023/02/24 00:40:22;;;;;;;11.38;7.80;;;;;;;7.84;64.03;94933.75;5088403;28;20115;-78
2023/02/24 00:42:47;;;;;;;12.35;7.63;;;;;;;7.88;63.99;94930.97;5088683;28;20028;-78
2023/02/24 00:45:15;;;;;;;13.70;7.25;;;;;;;7.92;63.79;94935.19;5087111;28;20054;-79
2023/02/24 00:47:41;;;;;;;11.80;7.75;;;;;;;7.86;63.60;94925.91;5085406;28;20423;-79
2023/02/24 00:50:07;;;;;;;12.88;7.40;;;;;;;7.95;63.64;94928.09;5085923;28;20024;-79
2023/02/24 00:52:33;;;;;;;12.80;6.93;;;;;;;7.98;63.37;94932.75;5068650;28;20044;-79
2023/02/24 00:54:59;;;;;;;11.00;7.57;;;;;;;8.03;63.06;94928.72;5086941;28;20082;-79
2023/02/24 00:57:24;;;;;;;10.80;6.55;;;;;;;8.10;62.75;94931.34;5086838;28;20101;-78
2023/02/24 00:59:50;;;;;;;9.90;7.03;;;;;;;8.03;62.92;94925.97;5084842;28;20039;-77
2023/02/24 01:02:16;;;;;;;8.52;6.03;;;;;;;8.01;63.03;94929.16;5072485;28;20040;-78
2023/02/24 01:04:43;;;;;;;9.00;6.53;;;;;;;7.98;62.73;94908.09;5085077;28;20090;-79
2023/02/24 01:07:09;;;;;;;9.68;5.97;;;;;;;7.99;62.98;94926.84;5086485;28;20110;-78
2023/02/24 01:09:36;;;;;;;9.80;6.75;;;;;;;8.03;62.96;94928.72;5085472;28;20059;-80
2023/02/24 01:14:47;;;;;;;9.05;6.38;;;;;;;7.86;63.40;94895.81;5092347;28;20416;-79
2023/02/24 01:17:13;;;;;;;12.05;6.90;;;;;;;7.87;63.28;94891.13;5105947;28;20016;-78
2023/02/24 01:19:39;;;;;;;11.18;6.78;;;;;;;7.83;63.29;94921.28;5106877;28;20384;-77
2023/02/24 01:22:08;;;;;;;10.27;6.63;;;;;;;7.75;63.38;94894.47;5087623;28;20122;-80
2023/02/24 01:24:36;;;;;;;8.05;6.22;;;;;;;7.74;63.62;94896.41;5085699;28;20028;-78
2023/02/24 01:27:03;;;;;;;11.18;6.63;;;;;;;7.59;63.95;94890.44;5086775;28;20111;-77
2023/02/24 01:29:28;;;;;;;8.00;6.03;;;;;;;7.60;64.02;94889.25;5068076;28;20073;-78
2023/02/24 01:31:57;;;;;;;10.63;6.53;;;;;;;7.65;63.71;94896.97;5085572;28;20040;-78
2023/02/24 01:34:23;;;;;;;9.05;6.22;;;;;;;7.44;64.59;94905.56;5068056;28;20220;-78
2023/02/24 01:36:49;;;;;;;11.07;7.07;;;;;;;7.35;64.81;94886.97;5088197;28;20107;-78
2023/02/24 01:39:14;;;;;;;11.00;7.20;;;;;;;7.21;65.39;94894.63;5086314;28;20028;-78
2023/02/24 01:41:43;;;;;;;11.32;6.90;;;;;;;7.14;65.59;94904.47;5068411;28;20578;-78
2023/02/24 01:44:16;;;;;;;9.18;6.40;;;;;;;7.12;65.76;94895.16;5083997;28;20048;-78
2023/02/24 01:46:43;;;;;;;10.65;6.32;;;;;;;7.06;65.80;94891.34;5086241;28;20054;-79
2023/02/24 01:49:23;;;;;;;10.63;6.40;;;;;;;6.94;66.22;94889.97;5085508;28;20522;-78
2023/02/24 01:52:05;;;;;;;10.57;6.32;;;;;;;6.82;66.46;94890.53;5089034;28;20065;-79
2023/02/24 01:54:41;;;;;;;11.00;6.65;;;;;;;6.78;66.50;94884.38;5090184;28;20491;-78
2023/02/24 01:57:08;;;;;;;11.68;6.65;;;;;;;6.83;66.38;94887.41;5085920;28;20028;-79
2023/02/24 01:59:38;;;;;;;8.15;5.72;;;;;;;6.85;66.13;94887.75;5085058;28;20028;-79
2023/02/24 02:02:06;;;;;;;9.60;7.03;;;;;;;6.83;66.15;94881.94;5085139;28;20035;-78
2023/02/24 02:04:50;;;;;;;8.80;6.05;;;;;;;6.82;66.28;94885.84;5083413;28;20528;-78
2023/02/24 02:07:18;;;;;;;9.48;5.90;;;;;;;6.86;66.48;94891.25;5072219;28;20060;-78
2023/02/24 02:09:44;;;;;;;8.00;5.65;;;;;;;6.94;65.78;94895.44;5084000;28;20024;-78
2023/02/24 02:12:10;;;;;;;10.02;5.68;;;;;;;6.93;65.90;94896.59;5086272;28;20032;-79
2023/02/24 02:14:42;;;;;;;9.07;5.88;;;;;;;6.78;65.80;94887.09;5084676;28;20442;-78
2023/02/24 02:17:13;;;;;;;9.45;6.05;;;;;;;6.84;65.88;94879.97;5084469;28;20031;-78
2023/02/24 02:20:14;;;;;;;11.57;6.07;;;;;;;6.89;65.65;94888.47;5084731;28;20035;-79
2023/02/24 02:22:44;;;;;;;9.95;5.80;;;;;;;6.89;65.54;94890.44;5083254;28;20354;-79
2023/02/24 02:25:34;;;;;;;9.88;6.60;;;;;;;6.91;65.42;94896.25;5086198;28;20089;-79
2023/02/24 02:28:09;;;;;;;8.80;5.57;;;;;;;6.87;65.49;94896.31;5084733;28;20366;-79
2023/02/24 02:30:43;;;;;;;8.00;5.88;;;;;;;6.96;65.15;94897.75;5084391;28;20439;-78
2023/02/24 02:33:26;;;;;;;8.50;5.70;;;;;;;6.90;65.35;94897.44;5090457;28;20082;-78
2023/02/24 02:36:11;;;;;;;8.65;5.60;;;;;;;6.87;65.27;94892.81;5083638;28;20081;-79
2023/02/24 02:38:59;;;;;;;7.05;4.60;;;;;;;6.90;65.10;94898.22;5085105;28;20027;-79
2023/02/24 02:41:35;;;;;;;8.60;5.47;;;;;;;6.93;65.25;94896.59;5084578;28;20032;-78
2023/02/24 02:44:08;;;;;;;8.55;4.57;;;;;;;6.95;64.95;94898.94;5065784;28;20116;-79
2023/02/24 02:46:52;;;;;;;9.30;5.47;;;;;;;6.83;64.66;94878.44;5067151;28;20039;-81
2023/02/24 02:49:40;;;;;;;7.57;4.88;;;;;;;6.83;64.87;94884.69;5083159;28;20044;-79
2023/02/24 02:52:14;;;;;;;8.35;4.85;;;;;;;6.93;64.84;94891.91;5065543;28;20126;-79
2023/02/24 02:54:55;;;;;;;8.45;5.50;;;;;;;6.94;64.80;94884.50;5084425;28;20031;-78
2023/02/24 02:57:25;;;;;;;9.18;5.07;;;;;;;7.02;64.93;94891.41;5082846;28;20081;-78
2023/02/24 02:59:55;;;;;;;6.95;4.85;;;;;;;6.98;64.35;94889.91;5083652;28;20023;-78
2023/02/24 03:02:27;;;;;;;9.23;5.22;;;;;;;6.98;64.44;94890.69;5083642;28;20035;-79
2023/02/24 03:04:56;;;;;;;8.32;5.30;;;;;;;6.93;64.42;94889.19;5082744;28;20032;-78
2023/02/24 03:07:30;;;;;;;7.63;5.35;;;;;;;6.94;64.50;94892.72;5084067;28;20440;-78
2023/02/24 03:09:58;;;;;;;7.13;4.65;;;;;;;6.99;64.18;94894.94;5082275;28;20096;-79
2023/02/24 03:12:25;;;;;;;7.97;5.13;;;;;;;7.04;64.20;94891.75;5085717;28;20024;-80
2023/02/24 03:14:58;;;;;;;9.57;5.22;;;;;;;7.07;64.04;94893.66;5083060;28;20032;-80
2023/02/24 03:17:26;;;;;;;8.27;5.27;;;;;;;7.17;63.64;94892.72;5083804;28;20035;-78
2023/02/24 03:20:00;;;;;;;9.55;4.63;;;;;;;7.18;63.40;94894.28;5085517;28;20024;-79
2023/02/24 03:22:40;;;;;;;8.40;5.22;;;;;;;7.25;63.28;94898.06;5086568;28;20046;-78
2023/02/24 03:25:07;;;;;;;6.10;4.32;;;;;;;7.13;63.21;94881.06;5088975;28;20077;-79
2023/02/24 03:27:45;;;;;;;8.77;5.10;;;;;;;7.21;63.39;94880.94;5091857;28;20059;-77
2023/02/24 03:30:20;;;;;;;9.88;4.97;;;;;;;7.24;63.11;94894.56;5098626;28;20024;-78
2023/02/24 03:32:54;;;;;;;7.72;4.95;;;;;;;7.23;63.17;94889.53;5101604;28;20023;-78
2023/02/24 03:35:23;;;;;;;7.68;5.40;;;;;;;7.17;63.24;94884.53;5071405;28;20428;-79
2023/02/24 03:37:49;;;;;;;7.53;4.82;;;;;;;7.12;63.26;94870.56;5071552;28;20577;-79
2023/02/24 03:40:17;;;;;;;7.88;4.70;;;;;;;7.12;63.09;94876.03;5088126;28;20114;-79
2023/02/24 03:42:46;;;;;;;9.55;5.47;;;;;;;7.13;63.18;94889.28;5087754;28;20028;-79
2023/02/24 03:45:12;;;;;;;8.27;4.88;;;;;;;7.16;63.01;94891.16;5086608;28;20520;-78
2023/02/24 03:47:39;;;;;;;7.68;5.03;;;;;;;7.30;62.85;94900.34;5086756;28;20028;-78
2023/02/24 03:50:16;;;;;;;8.57;5.20;;;;;;;7.33;62.28;94894.03;5070902;28;20028;-77
2023/02/24 03:52:57;;;;;;;10.32;5.75;;;;;;;7.35;62.44;94895.16;5085893;28;20028;-78
2023/02/24 03:55:44;;;;;;;8.50;4.82;;;;;;;7.45;62.22;94893.41;5089341;28;20418;-80
2023/02/24 03:58:45;;;;;;;7.43;5.20;;;;;;;7.54;61.86;94896.38;5086489;28;20096;-79
2023/02/24 04:01:34;;;;;;;5.72;4.68;;;;;;;7.61;61.58;94895.50;5087595;28;20584;-79
2023/02/24 04:04:06;;;;;;;6.97;4.75;;;;;;;7.63;61.15;94893.13;5081969;28;20040;-78
2023/02/24 04:06:37;;;;;;;9.10;4.88;;;;;;;7.69;61.00;94897.69;5087219;28;20024;-79
2023/02/24 04:09:13;;;;;;;8.35;4.38;;;;;;;7.77;60.85;94897.56;5086952;28;20062;-77
2023/02/24 04:11:53;;;;;;;7.28;4.35;;;;;;;7.76;60.71;94896.00;5086453;28;20035;-78
2023/02/24 04:14:26;;;;;;;7.85;4.28;;;;;;;7.78;60.62;94890.88;5085739;28;20055;-77
2023/02/24 04:16:56;;;;;;;6.80;4.10;;;;;;;7.77;60.56;94892.06;5088014;28;20031;-78
2023/02/24 04:19:23;;;;;;;5.60;4.35;;;;;;;7.81;60.48;94888.09;5087326;28;20028;-76
2023/02/24 04:21:49;;;;;;;6.60;4.32;;;;;;;7.74;60.70;94888.19;5088688;28;20028;-78
2023/02/24 04:24:17;;;;;;;7.10;4.15;;;;;;;7.77;60.54;94886.59;5086656;28;20053;-76
2023/02/24 04:26:44;;;;;;;6.18;3.97;;;;;;;7.79;60.29;94887.72;5085686;28;20023;-76
2023/02/24 04:29:16;;;;;;;7.90;4.85;;;;;;;7.79;60.75;94886.94;5086928;28;20437;-76
2023/02/24 04:32:05;;;;;;;7.20;4.63;;;;;;;7.77;60.66;94876.44;5067197;28;20031;-76
2023/02/24 04:34:33;;;;;;;5.63;4.03;;;;;;;7.79;60.30;94873.25;5087105;28;20024;-77
2023/02/24 04:37:01;;;;;;;6.65;3.95;;;;;;;7.78;60.40;94871.72;5085381;28;20475;-76
2023/02/24 04:39:28;;;;;;;6.55;4.20;;;;;;;7.69;60.39;94869.56;5088044;28;20100;-77
2023/02/24 04:41:53;;;;;;;6.80;3.85;;;;;;;7.60;60.62;94861.88;5086012;28;20024;-77
2023/02/24 04:44:21;;;;;;;7.88;3.90;;;;;;;7.51;60.93;94875.31;5084877;28;20052;-76
2023/02/24 04:46:50;;;;;;;7.18;4.57;;;;;;;7.35;61.19;94856.09;5086137;28;20028;-76
2023/02/24 04:49:33;;;;;;;6.25;4.28;;;;;;;7.41;61.28;94857.94;5083490;28;20112;-75
2023/02/24 04:51:58;;;;;;;8.38;5.00;;;;;;;7.41;61.29;94868.09;5085866;28;20159;-78
2023/02/24 04:54:24;;;;;;;7.75;5.05;;;;;;;7.52;61.08;94873.41;5086614;28;20032;-77
2023/02/24 04:56:50;;;;;;;7.55;4.43;;;;;;;7.56;61.07;94872.13;5085253;28;20062;-76
2023/02/24 04:59:17;;;;;;;9.52;4.78;;;;;;;7.69;60.74;94867.59;5086006;28;20587;-76
2023/02/24 05:01:43;;;;;;;8.10;5.15;;;;;;;7.80;60.20;94863.84;5084131;28;20422;-77
2023/02/24 05:04:10;;;;;;;9.95;4.15;;;;;;;7.86;59.71;94860.25;5085810;28;20036;-77
2023/02/24 05:06:39;;;;;;;7.97;4.47;;;;;;;7.90;59.59;94862.88;5084415;28;20050;-77
2023/02/24 05:09:13;;;;;;;6.43;4.53;;;;;;;7.99;59.49;94863.88;5086177;28;20028;-77
2023/02/24 05:11:41;;;;;;;7.23;4.93;;;;;;;8.01;59.14;94863.44;5084865;28;20039;-76
2023/02/24 05:14:13;;;;;;;8.10;4.00;;;;;;;8.02;59.03;94865.00;5084468;28;20036;-76
2023/02/24 05:16:41;;;;;;;8.13;4.50;;;;;;;8.10;59.39;94862.91;5085825;28;20032;-77
2023/02/24 05:21:51;;;;;;;6.95;4.85;;;;;;;8.05;59.60;94864.16;5090821;28;20085;-76
2023/02/24 05:24:16;;;;;;;7.18;4.25;;;;;;;8.10;59.50;94865.63;5087769;28;20036;-76
2023/02/24 05:26:42;;;;;;;7.53;4.25;;;;;;;8.19;59.40;94868.56;5085824;28;20028;-76
2023/02/24 05:29:08;;;;;;;10.82;5.32;;;;;;;8.31;59.56;94875.34;5087589;28;20466;-77
2023/02/24 05:31:34;;;;;;;9.38;5.20;;;;;;;8.21;59.45;94871.66;5086099;28;20030;-77
2023/02/24 05:34:04;;;;;;;8.25;4.95;;;;;;;8.13;59.62;94870.25;5087275;28;20027;-76
2023/02/24 05:36:37;;;;;;;8.30;5.25;;;;;;;8.13;60.65;94862.81;5084237;28;20504;-78
2023/02/24 05:39:06;;;;;;;9.10;5.05;;;;;;;8.13;60.39;94876.50;5088503;28;20091;-77
2023/02/24 05:41:34;;;;;;;8.57;4.78;;;;;;;8.02;60.66;94864.22;5096461;28;20028;-75
2023/02/24 05:44:03;;;;;;;6.43;4.18;;;;;;;7.88;60.41;94870.75;5099469;28;20078;-78
2023/02/24 05:46:31;;;;;;;6.82;4.35;;;;;;;7.81;61.15;94865.44;5085869;28;20490;-78
2023/02/24 05:49:02;;;;;;;8.70;4.88;;;;;;;7.79;61.61;94871.28;5067075;28;20035;-77
2023/02/24 05:51:35;;;;;;;7.30;4.40;;;;;;;7.81;61.83;94870.91;5085288;28;20090;-76
2023/02/24 05:54:03;;;;;;;10.15;4.88;;;;;;;7.80;61.97;94861.91;5083773;28;20545;-76
2023/02/24 05:56:30;;;;;;;7.53;4.30;;;;;;;7.88;62.04;94876.22;5087088;28;20058;-79
2023/02/24 05:59:00;;;;;;;6.70;4.70;;;;;;;7.79;61.49;94878.75;5084216;28;20028;-78
2023/02/24 06:01:29;;;;;;;8.82;4.55;;;;;;;7.78;61.67;94888.16;5084609;28;20106;-77
2023/02/24 06:03:55;;;;;;;7.95;4.65;;;;;;;7.79;61.96;94895.16;5084941;28;20531;-77
2023/02/24 06:06:22;;;;;;;8.32;4.63;;;;;;;7.86;61.95;94904.03;5084214;28;20112;-79
2023/02/24 06:08:50;;;;;;;7.25;4.60;;;;;;;7.90;61.40;94903.94;5086666;28;20176;-80
2023/02/24 06:11:19;;;;;;;7.05;4.28;;;;;;;7.97;61.27;94907.34;5084063;28;20402;-80
2023/02/24 06:13:48;;;;;;;6.72;4.18;;;;;;;7.98;61.11;94889.72;5085782;28;20134;-78
2023/02/24 06:16:17;;;;;;;7.95;3.90;;;;;;;7.99;61.09;94898.69;5084179;28;20024;-77
2023/02/24 06:18:47;;;;;;;7.78;4.75;;;;;;;8.06;61.23;94890.34;5084560;28;20028;-78
2023/02/24 06:21:12;;;;;;;5.38;4.40;;;;;;;7.99;61.30;94893.22;5085103;28;20567;-80
2023/02/24 06:23:40;;;;;;;8.15;4.47;;;;;;;7.99;61.51;94896.72;5066962;28;20114;-79
2023/02/24 06:26:11;;;;;;;6.47;4.28;;;;;;;8.06;61.40;94897.78;5091022;28;20112;-78
2023/02/24 06:28:42;;;;;;;5.68;3.83;;;;;;;8.06;61.60;94895.81;5088125;28;20034;-79
2023/02/24 06:31:09;;;;;;;8.18;4.85;;;;;;;8.11;61.16;94905.50;5085886;28;20123;-79
2023/02/24 06:33:35;;;;;;;8.13;4.32;;;;;;;8.13;61.06;94898.41;5087033;28;20055;-79
2023/02/24 06:36:05;;;;;;;9.38;4.55;;;;;;;8.17;60.48;94898.34;5086044;28;20047;-79
2023/02/24 06:38:32;;;;;;;9.68;4.43;;;;;;;8.18;60.98;94895.16;5084800;28;20036;-79
2023/02/24 06:40:59;;;;;;;7.53;4.53;;;;;;;8.13;60.80;94881.19;5083022;28;20475;-78
2023/02/24 06:43:24;;;;;;;8.25;4.18;;;;;;;8.25;60.88;94889.53;5085802;28;20545;-77
2023/02/24 06:45:50;;;;;;;7.97;4.78;;;;;;;8.20;60.45;94884.59;5083220;28;20024;-80
2023/02/24 06:48:15;;;;;;;8.68;4.20;;;;;;;8.20;60.51;94892.00;5085378;28;20111;-79
2023/02/24 06:50:41;;;;;;;7.60;4.15;;;;;;;8.11;60.72;94887.09;5085093;28;20035;-80
2023/02/24 06:53:15;;;;;;;6.50;4.53;;;;;;;8.10;60.84;94882.84;5084318;28;20050;-79
2023/02/24 06:55:47;;;;;;;7.55;4.63;;;;;;;8.11;61.11;94883.59;5084071;28;20051;-78
2023/02/24 06:58:18;;;;;;;7.15;4.47;;;;;;;8.04;61.07;94876.31;5083677;28;20054;-78
2023/02/24 07:00:55;;;;;;;9.60;5.00;;;;;;;8.10;61.38;94895.75;5084383;28;20028;-77
2023/02/24 07:03:23;;;;;;;7.63;4.40;;;;;;;8.10;61.28;94885.56;5067370;28;20083;-79
2023/02/24 07:05:53;;;;;;;6.65;4.70;;;;;;;8.15;61.19;94878.84;5084766;28;20028;-78
2023/02/24 07:08:26;;;;;;;20.10;8.90;;;;;;;8.17;60.98;94885.41;5084431;28;20038;-78
2023/02/24 07:10:58;;;;;;;19.75;8.93;;;;;;;8.28;60.97;94896.16;5066421;28;20050;-77
2023/02/24 07:13:27;;;;;;;9.17;5.37;;;;;;;8.28;60.63;94882.47;5084429;28;20028;-77
2023/02/24 07:15:53;;;;;;;8.95;5.07;;;;;;;8.20;60.39;94870.09;5066236;28;20025;-79
2023/02/24 07:18:19;;;;;;;10.77;4.68;;;;;;;8.19;60.30;94880.28;5085790;28;20134;-79
2023/02/24 07:20:45;;;;;;;7.15;4.57;;;;;;;8.10;60.48;94874.63;5082578;28;20207;-77
2023/02/24 07:23:15;;;;;;;8.65;4.72;;;;;;;8.06;60.85;94860.22;5084718;28;20027;-78
2023/02/24 07:25:42;;;;;;;7.93;5.15;;;;;;;8.05;60.87;94875.09;5083759;28;20028;-79
2023/02/24 07:28:09;;;;;;;10.00;4.93;;;;;;;7.96;61.05;94867.44;5083191;28;20541;-78
2023/02/24 07:30:37;;;;;;;8.40;4.97;;;;;;;7.96;61.41;94874.88;5085346;28;20032;-79
2023/02/24 07:33:02;;;;;;;6.63;4.80;;;;;;;7.99;61.07;94872.09;5090277;28;20028;-79
2023/02/24 07:35:28;;;;;;;9.40;5.25;;;;;;;8.10;60.91;94879.31;5085125;28;20024;-78
2023/02/24 07:37:54;;;;;;;9.27;5.50;;;;;;;8.11;60.39;94878.13;5082899;28;20028;-78
2023/02/24 07:40:21;;;;;;;7.50;4.15;;;;;;;8.15;60.17;94881.56;5086393;28;20024;-77
2023/02/24 07:42:49;;;;;;;7.43;4.60;;;;;;;8.16;60.24;94881.13;5084771;28;20092;-78
2023/02/24 07:45:14;;;;;;;6.65;4.47;;;;;;;8.22;59.87;94882.19;5085955;28;20127;-78
2023/02/24 07:47:40;;;;;;;8.77;5.15;;;;;;;8.31;59.95;94869.88;5101794;28;20047;-77
2023/02/24 07:50:13;;;;;;;10.80;5.30;;;;;;;8.36;59.43;94867.44;5106609;28;20122;-76
2023/02/24 07:52:39;;;;;;;11.13;5.30;;;;;;;8.30;59.66;94857.38;5085986;28;20024;-78
2023/02/24 07:55:07;;;;;;;10.52;5.68;;;;;;;8.23;59.82;94866.53;5083124;28;20032;-77
2023/02/24 07:57:36;;;;;;;9.75;5.78;;;;;;;8.24;59.67;94866.09;5084760;28;20419;-77
2023/02/24 08:00:15;;;;;;;7.50;4.53;;;;;;;8.30;59.90;94862.88;5083454;28;20088;-79
2023/02/24 08:02:41;;;;;;;7.50;4.43;;;;;;;8.34;59.42;94852.59;5083908;28;20024;-77
2023/02/24 08:05:08;;;;;;;11.23;5.22;;;;;;;8.40;59.51;94859.16;5083519;28;20028;-77
2023/02/24 08:07:33;;;;;;;12.85;5.80;;;;;;;8.49;59.30;94853.88;5085272;28;20040;-77
2023/02/24 08:10:23;;;;;;;12.38;6.32;;;;;;;8.61;59.39;94850.47;5089029;28;20024;-79
2023/02/24 08:12:53;;;;;;;11.90;6.75;;;;;;;8.71;59.21;94852.19;5086062;28;20028;-78
2023/02/24 08:15:23;;;;;;;13.10;7.60;;;;;;;8.78;58.65;94848.53;5086934;28;20424;-79
2023/02/24 08:17:53;;;;;;;11.63;8.32;;;;;;;8.81;58.86;94844.16;5086918;28;20031;-80
2023/02/24 08:20:20;;;;;;;14.55;8.68;;;;;;;8.82;58.63;94837.47;5085878;28;20387;-78
2023/02/24 08:22:50;;;;;;;14.07;7.30;;;;;;;8.97;58.57;94846.91;5087537;28;20039;-78
2023/02/24 08:25:17;;;;;;;11.05;6.70;;;;;;;9.09;57.88;94853.66;5087627;28;20024;-79
2023/02/24 08:27:44;;;;;;;10.90;5.95;;;;;;;9.08;57.40;94852.91;5087639;28;20521;-78
2023/02/24 08:30:23;;;;;;;10.07;6.00;;;;;;;9.11;57.39;94848.50;5085903;28;20108;-80
2023/02/24 08:32:55;;;;;;;12.57;6.72;;;;;;;9.11;57.65;94854.75;5086390;28;20032;-78
2023/02/24 08:35:30;;;;;;;12.45;6.40;;;;;;;9.11;57.56;94854.75;5088148;28;20039;-79
2023/02/24 08:38:00;;;;;;;13.10;6.38;;;;;;;9.21;57.30;94851.00;5095152;28;20340;-79
2023/02/24 08:43:31;;;;;;;11.18;6.18;;;;;;;9.29;56.91;94844.16;5085567;28;20371;-80
2023/02/24 08:45:59;;;;;;;10.02;5.43;;;;;;;9.47;55.89;94849.19;5089612;28;20032;-80
2023/02/24 08:48:42;;;;;;;9.30;5.57;;;;;;;9.50;55.48;94840.06;5093961;28;20031;-81
2023/02/24 08:51:20;;;;;;;10.32;6.55;;;;;;;9.75;55.24;94833.94;5089381;28;20036;-76
2023/02/24 08:53:48;;;;;;;12.02;5.10;;;;;;;9.89;55.61;94838.25;5089117;28;20024;-80
2023/02/24 08:56:22;;;;;;;10.65;6.10;;;;;;;10.10;55.12;94837.66;5086684;28;20024;-81
2023/02/24 08:58:49;;;;;;;12.00;6.03;;;;;;;10.42;53.92;94837.94;5086177;28;20039;-79
2023/02/24 09:01:33;;;;;;;11.00;6.85;;;;;;;10.44;53.47;94835.56;5087166;28;20046;-79
2023/02/24 09:04:00;;;;;;;11.73;6.55;;;;;;;10.44;53.46;94832.81;5085478;28;20056;-80
2023/02/24 09:06:44;;;;;;;11.38;6.82;;;;;;;10.66;53.26;94841.91;5086704;28;20032;-79
2023/02/24 09:09:16;;;;;;;9.13;5.82;;;;;;;10.82;52.58;94833.56;5085215;28;20050;-80
2023/02/24 09:11:45;;;;;;;10.80;6.40;;;;;;;11.10;52.08;94837.41;5086758;28;20039;-79
2023/02/24 09:14:19;;;;;;;11.18;6.80;;;;;;;11.52;50.61;94820.66;5085747;28;20028;-79
2023/02/24 09:17:00;;;;;;;;;;;;;;;12.27;49.48;94829.03;5087265;28;20020;-79
2023/02/24 09:22:32;;;;;;;9.90;6.47;;;;;;;13.46;46.23;94839.81;5065210;28;20086;-80
2023/02/24 09:28:31;;;;;;;13.27;6.72;;;;;;;13.95;44.72;94830.63;5063029;28;20050;-79
2023/02/24 09:30:59;;;;;;;12.90;6.72;;;;;;;14.17;43.98;94834.00;5086527;28;20024;-79
2023/02/24 09:33:41;;;;;;;10.93;6.18;;;;;;;14.14;43.70;94831.38;5085340;28;20055;-80
2023/02/24 09:36:26;;;;;;;12.05;5.90;;;;;;;14.02;43.79;94836.63;5087313;28;20032;-79
2023/02/24 09:41:30;;;;;;;9.57;6.20;;;;;;;14.16;43.12;94826.91;5090438;28;20032;-79
2023/02/24 09:44:02;;;;;;;12.63;7.10;;;;;;;14.39;42.77;94821.97;5094518;28;20119;-80
2023/02/24 09:46:31;;;;;;;11.18;6.53;;;;;;;14.41;43.00;94820.28;5085718;28;20032;-79
2023/02/24 09:49:04;;;;;;;12.00;7.32;;;;;;;14.78;42.34;94815.41;5086519;28;20111;-79
2023/02/24 09:51:41;;;;;;;;;;;;;;;14.72;42.43;94817.28;5086665;28;20077;-79
2023/02/24 09:54:12;;;;;;;12.15;7.28;;;;;;;14.58;42.66;94798.59;5087006;28;19994;-79
2023/02/24 09:56:41;;;;;;;18.20;8.65;;;;;;;14.36;42.87;94784.97;5097423;28;20036;-79
2023/02/24 09:59:33;;;;;;;12.73;7.78;;;;;;;14.38;43.24;94792.78;5091084;28;20437;-78
2023/02/24 10:02:26;;;;;;;14.43;7.10;;;;;;;14.25;43.53;94787.44;5091001;28;20024;-79
2023/02/24 10:04:52;;;;;;;12.57;7.82;;;;;;;14.27;43.44;94787.72;5084113;28;20059;-78
2023/02/24 10:07:37;;;;;;;12.20;7.47;;;;;;;14.12;43.24;94771.03;5087682;28;20054;-79
2023/02/24 10:10:27;;;;;;;12.13;7.15;;;;;;;13.98;43.67;94769.66;5085128;28;20089;-78
2023/02/24 10:13:13;;;;;;;12.23;7.00;;;;;;;13.88;43.81;94770.13;5084054;28;20023;-80
2023/02/24 10:18:38;;;;;;;12.18;7.32;;;;;;;13.46;44.95;94746.69;5085105;28;20475;-80
2023/02/24 10:21:47;;;;;;;13.93;7.78;;;;;;;13.48;44.71;94760.81;5084044;28;20036;-79
2023/02/24 10:24:33;;;;;;;12.65;7.65;;;;;;;13.91;43.88;94767.22;5085542;28;20419;-80
2023/02/24 10:27:22;;;;;;;14.40;7.97;;;;;;;16.35;39.69;94762.47;5085274;28;20031;-80
2023/02/24 10:29:54;;;;;;;15.82;8.25;;;;;;;18.40;35.72;94755.78;5084086;28;20055;-80
2023/02/24 10:32:41;;;;;;;15.82;7.93;;;;;;;19.91;32.59;94742.06;5086573;28;20035;-80
2023/02/24 10:35:15;;;;;;;11.88;7.45;;;;;;;20.19;31.83;94739.34;5083664;28;20531;-80
2023/02/24 10:37:41;;;;;;;13.77;7.35;;;;;;;20.86;31.18;94737.34;5084726;28;20035;-81
2023/02/24 10:40:11;;;;;;;14.93;7.65;;;;;;;22.97;27.78;94735.38;5085573;28;20031;-81
2023/02/24 10:42:46;;;;;;;12.02;7.45;;;;;;;23.46;26.79;94726.97;5083807;28;20023;-81
2023/02/24 10:45:24;;;;;;;14.35;7.82;;;;;;;24.91;23.89;94732.66;5070336;28;20138;-79
2023/02/24 10:47:58;;;;;;;11.68;7.63;;;;;;;25.69;23.40;94722.81;5098020;28;20444;-82
2023/02/24 10:50:42;;;;;;;14.32;7.80;;;;;;;25.88;23.60;94719.91;5085203;28;20043;-80
2023/02/24 10:53:28;;;;;;;13.55;8.18;;;;;;;26.20;22.44;94711.25;5085133;28;20406;-80
2023/02/24 10:58:43;;;;;;;19.95;8.77;;;;;;;25.38;23.68;94701.91;5085192;28;20042;-80
2023/02/24 11:01:19;;;;;;;15.32;8.75;;;;;;;24.39;24.79;94703.09;5084753;28;20046;-76
2023/02/24 11:06:51;;;;;;;13.45;8.75;;;;;;;22.72;26.67;94696.06;5084788;28;20105;-80
2023/02/24 11:18:13;;;;;;;14.75;9.18;;;;;;;23.11;26.02;94654.94;5083232;28;20031;-79
2023/02/24 11:20:45;;;;;;;13.32;8.80;;;;;;;22.51;27.07;94662.13;5073795;28;20040;-80
2023/02/24 11:23:15;;;;;;;14.32;9.77;;;;;;;21.79;27.69;94657.75;5066509;28;20027;-80
2023/02/24 11:25:46;;;;;;;12.95;8.27;;;;;;;21.18;28.74;94656.00;5083332;28;20132;-83
2023/02/24 11:28:37;;;;;;;15.07;9.68;;;;;;;21.06;29.32;94649.69;5083688;28;20056;-81
2023/02/24 11:31:03;;;;;;;14.18;9.25;;;;;;;20.68;30.16;94652.03;5081736;28;20028;-81
2023/02/24 11:33:41;;;;;;;16.85;10.05;;;;;;;21.81;28.56;94640.47;5085386;28;20070;-80
2023/02/24 11:36:19;;;;;;;15.73;9.05;;;;;;;21.33;29.41;94644.50;5084810;28;20024;-80
2023/02/24 11:38:59;;;;;;;14.50;9.02;;;;;;;20.82;29.52;94627.91;5083118;28;20028;-80
2023/02/24 11:41:32;;;;;;;16.48;10.68;;;;;;;20.20;30.59;94618.06;5089127;28;20028;-80
2023/02/24 11:44:23;;;;;;;18.27;11.05;;;;;;;19.98;31.25;94616.03;5086336;28;20159;-81
2023/02/24 11:46:56;;;;;;;15.32;10.27;;;;;;;19.65;31.29;94605.59;5079205;28;20047;-81
2023/02/24 11:49:39;;;;;;;;;;;;;;;19.41;32.03;94600.44;5088381;28;20032;-80
2023/02/24 11:52:11;;;;;;;17.70;10.77;;;;;;;19.24;32.48;94601.16;5098885;28;19912;-79
2023/02/24 11:54:41;;;;;;;18.05;10.63;;;;;;;19.51;32.54;94590.59;5090995;28;20078;-82
2023/02/24 11:57:15;;;;;;;17.42;11.18;;;;;;;19.10;33.69;94583.38;5086520;28;20124;-81
2023/02/24 11:59:52;;;;;;;15.95;10.60;;;;;;;18.90;34.34;94585.56;5088096;28;20024;-81
2023/02/24 12:02:37;;;;;;;15.25;10.32;;;;;;;18.73;34.49;94591.81;5089343;28;20376;-82
2023/02/24 12:05:20;;;;;;;20.13;12.60;;;;;;;18.59;34.17;94592.75;5086983;28;20078;-81
2023/02/24 12:07:51;;;;;;;22.97;13.30;;;;;;;18.34;34.75;94579.69;5094995;28;20023;-81
2023/02/24 12:10:21;;;;;;;18.13;11.95;;;;;;;18.05;35.26;94581.50;5108714;28;20027;-82
2023/02/24 12:13:09;;;;;;;27.67;12.65;;;;;;;17.68;35.80;94575.88;5088360;28;20559;-81
2023/02/24 12:15:42;;;;;;;19.75;12.10;;;;;;;17.38;36.67;94569.78;5088772;28;20057;-81
2023/02/24 12:18:24;;;;;;;21.23;12.40;;;;;;;17.14;37.36;94564.47;5086911;28;20028;-81
2023/02/24 12:20:58;;;;;;;16.02;12.23;;;;;;;16.95;38.39;94561.25;5088304;28;20267;-81
2023/02/24 12:23:30;;;;;;;22.00;11.77;;;;;;;16.76;38.90;94568.34;5088351;28;20112;-81
2023/02/24 12:26:05;;;;;;;21.75;13.20;;;;;;;16.58;39.62;94581.22;5088519;28;20483;-81
2023/02/24 12:29:14;;;;;;;17.77;11.40;;;;;;;16.54;39.78;94566.78;5087853;28;20054;-80
2023/02/24 12:32:03;;;;;;;18.30;11.75;;;;;;;16.33;40.26;94556.91;5028739;28;20151;-81
2023/02/24 12:34:47;;;;;;;18.63;10.55;;;;;;;16.22;40.70;94554.72;5028977;28;20036;-80